Aviation Digital Data Service (ADDS)

Output produced by METARs form (1114 UTC 24 April 2017)
found at http://www.aviationweather.gov/adds/metars/
 
KLAF 240520Z 2406/2506 06005KT P6SM SKC 
     FM241600 08009KT P6SM SKC 
     FM250300 11006KT P6SM FEW200 AMD LTD TO CLD VIS AND WIND TIL 241300
       
KLAL 240538Z 2406/2506 28004KT P6SM FEW015 BKN040 
     FM240900 27003KT 6SM BR SCT007 BKN015 OVC025 
     FM241200 28006KT P6SM BKN025 OVC050 
     FM241500 28009KT P6SM VCSH SCT015 BKN025 
     FM241800 27016G26KT P6SM SCT025 BKN050 
     FM250000 28010KT P6SM SCT025 SCT050 
     FM250200 29006KT P6SM SKC AMD NOT SKED TIL 241100
       
KLAN 240530Z 2406/2506 02003KT P6SM FEW250 
     FM241600 10010KT P6SM SCT250
       
KLAR 240523Z 2406/2506 30011KT P6SM BKN120 
     FM241200 29015G25KT P6SM VCSH BKN100 
     FM241700 25022G32KT P6SM VCSH BKN050 OVC080
       
KLAS 240845Z 2409/2506 21007KT P6SM SCT250 
     FM241300 VRB05KT P6SM SCT250 
     FM242000 21010G18KT P6SM BKN150 
     FM250200 23010KT P6SM BKN150
       
KLAX 240939Z 2410/2512 VRB03KT P6SM BKN018 
     FM241700 26009KT P6SM SCT020 
     FM242000 26015KT P6SM SCT200 
     FM250300 30008KT P6SM SCT200
       
KLBB 240520Z 2406/2506 17010KT P6SM SCT300 
     FM241500 22018G26KT P6SM SCT250
       
KLBE 240525Z 2406/2506 00000KT P6SM BKN250 
     FM241700 10011KT P6SM BKN070 
     FM250200 10010KT P6SM VCSH OVC040
       
KLBF 240520Z 2406/2506 15012G19KT P6SM BKN250 
     FM241300 19011KT P6SM BKN250 
     FM241400 26012KT P6SM BKN250 
     FM241500 29012G18KT P6SM BKN250 
     FM241700 32013G20KT P6SM BKN250 
     FM242200 31008KT P6SM BKN200 
     FM250300 06005KT P6SM BKN150
       
KLBL 241026Z 2410/2506 19019G27KT P6SM SCT250 WS020/23050KT 
     FM241400 21021G29KT P6SM SCT250 
     FM241700 24021G29KT P6SM SCT250 
     FM250300 12011KT P6SM SCT200 AMD NOT SKED
       
KLBT 240525Z 2405/2506 07010KT 5SM BR VCSH OVC004 
     TEMPO 2408/2412 2SM +SHRA 
     FM241200 07008KT P6SM VCSH OVC008 
     TEMPO 2413/2415 2SM +SHRA OVC005 
     FM241500 09008KT 2SM +SHRA OVC008 
     FM250300 04008KT 2SM +SHRA OVC003
       
KLCK 240520Z 2406/2506 05008KT P6SM SCT250 
     FM241800 08011KT P6SM SCT200 
     FM250100 10008KT P6SM FEW050 BKN200
       
KLCH 240520Z 2406/2506 00000KT P6SM SKC 
     FM241400 VRB05KT P6SM SKC
       
KLEB 240903Z 2409/2506 00000KT P6SM SKC 
     FM241500 35004KT P6SM BKN090 BKN250 
     FM250000 00000KT P6SM SKC
       
KLEE 240520Z 2406/2506 23004KT P6SM BKN045 OVC060 
     FM240700 24006KT P6SM FEW020 
     FM241200 28009KT P6SM SCT030 
     TEMPO 2412/2414 BKN035 
     FM241800 28014G22KT P6SM SCT040 
     FM250000 26009KT P6SM SCT250
       
KLEX 240520Z 2406/2506 04008KT P6SM OVC050 
     FM250000 07008KT P6SM BKN050
       
TAF KLFI 240900Z 2409/2515 08012G18KT 8000 -RA FEW005 OVC009 QNH2993INS 
     BECMG 2412/2413 06018G25KT 4800 -RA BR OVC009 QNH3001INS 
     BECMG 2418/2419 05012KT 4800 -RA BR OVC005 QNH2986INS 
     BECMG 2509/2510 10012G18KT 3200 -RA BR OVC002 QNH2964INS 
     TEMPO 2511/2515 07018G25KT 
     BECMG 2514/2515 10012KT 4800 -RA BR OVC008 QNH2963INS TX18/2420Z TN13/2409Z
       
KLFK 240526Z 2406/2506 VRB03KT P6SM SKC 
     FM242000 18006KT P6SM SKC
       
KLFT 240520Z 2406/2506 VRB03KT P6SM SKC 
     FM241400 34009KT P6SM SKC 
     FM242300 VRB04KT P6SM SKC
       
KLGA 240835Z 2409/2506 11003KT P6SM BKN250 
     FM241300 06005KT P6SM BKN150 
     FM241800 07010KT P6SM BKN100 
     FM242200 07010KT P6SM SCT050 BKN080 
     FM250300 07010KT P6SM -RA SCT015 OVC060
       
KLGB 240943Z 2410/2506 VRB03KT P6SM SCT017 SCT200 
     FM241100 13005KT P6SM BKN018 
     FM241700 19009KT P6SM SCT020 
     FM242300 28010KT P6SM SCT200 
     FM250500 VRB03KT P6SM SCT200
       
KLGU 240540Z 2406/2506 VRB04KT P6SM SCT060 BKN100 
     FM241600 22009KT P6SM -SHRA SCT040 BKN060 
     FM241800 22013KT 6SM -RA SCT020 OVC030 
     FM242300 32009KT P6SM VCSH SCT030 BKN050
       
KLIT 240520Z 2406/2506 VRB05KT P6SM SKC
       
KLLQ 240520Z 2406/2506 VRB05KT P6SM SKC
       
KLMT 240920Z 2409/2506 24012KT 5SM -RA BR SCT015 BKN025 OVC035 
     FM241500 25015G22KT 4SM -RA BR BKN015 OVC025 
     FM241800 27020G30KT P6SM -RA BKN025 OVC040 
     FM242000 29025G35KT P6SM -SHRA SCT025 OVC040 
     FM250000 27015G25KT P6SM -SHRA BKN025 OVC040
       
KLND 240526Z 2406/2506 28008KT P6SM FEW110 SCT200 
     FM241900 23011G19KT P6SM BKN150 
     FM242200 25011G18KT P6SM VCTS SCT070 BKN090CB 
     FM250200 31012G19KT P6SM SCT080 
     FM250500 25010KT P6SM SCT090
       
KLNK 240520Z 2406/2506 18010KT P6SM BKN200 WS020/19045KT 
     FM241400 18018G26KT P6SM BKN150 
     FM242300 19013KT P6SM SCT200 
     FM250100 19008KT P6SM SCT200
       
KLNS 241001Z 2410/2506 08004KT P6SM VCSH BKN100 OVC180 
     FM241400 08006KT P6SM -SHRA BKN070 OVC100 
     FM241700 09008G15KT P6SM -SHRA OVC050
       
KLOZ 241010Z 2410/2506 04008KT P6SM VCSH BKN008 OVC020 
     FM241200 05009KT P6SM OVC015 
     FM241500 05008KT P6SM OVC020 
     FM242000 05007KT P6SM BKN020
       
KLRD 240523Z 2406/2506 13006KT P6SM SCT250 
     FM241600 16011KT P6SM BKN150 
     FM250000 14011KT P6SM FEW100
       
TAF KLRF 240700Z 2407/2513 31006KT 9999 SKC QNH2980INS 
     BECMG 2421/2422 16006KT 9999 SKC QNH2970INS TX24/2421Z TN08/2411Z
       
KLRU 240520Z 2406/2506 14006KT P6SM SKC 
     FM240900 25008KT P6SM SCT250 
     FM241700 25015G25KT P6SM SKC 
     FM242000 25024G34KT P6SM SKC 
     TEMPO 2420/2424 2SM BLDU 
     FM250300 25018G28KT P6SM SKC
       
KLSE 240525Z 2406/2506 13005KT P6SM SCT250 
     FM241700 16013G23KT P6SM BKN250 
     FM250000 15010KT P6SM BKN250
       
TAF KLSF 240900Z 2409/2515 30006KT 9999 BKN020 OVC035 QNH2974INS 
     BECMG 2417/2418 32010G15KT 9999 BKN030 QNH2975INS 
     BECMG 2423/2424 30006KT 9999 BKN025 QNH2975INS 
     BECMG 2513/2514 29006KT 9999 FEW030 QNH2981INS TX21/2421Z TN12/2411Z
       
TAF KLSV 240659Z 2407/2513 18012KT 9999 FEW200 QNH2963INS 
     BECMG 2416/2417 24009KT 9999 FEW250 QNH2963INS 
     BECMG 2420/2421 24012G18KT 9999 FEW250 QNH2958INS 
     BECMG 2501/2502 24015G25KT 9999 FEW250 520009 QNH2952INS TX31/2423Z TN12/2412Z
       
TAF KLTS 240900Z 2409/2515 17009KT 9999 FEW250 WS020/18045KT QNH2986INS 
     BECMG 2414/2415 19015G25KT 9999 FEW250 QNH2954INS 
     BECMG 2423/2424 18012KT 9999 FEW250 QNH2948INS 
     BECMG 2505/2506 16012KT 9999 FEW150 WS020/20045KT QNH2942INS 
     BECMG 2514/2515 22012G18KT 9999 SCT150 QNH2941INS TX28/2421Z TN07/2412Z
       
KLVK 240541Z 2406/2506 24007KT P6SM SCT180 
     FM241100 24004KT P6SM BKN050 BKN100 
     FM241800 26012G18KT P6SM -SHRA BKN030 OVC060 
     FM250100 26012KT P6SM SCT025 BKN060
       
KLVM 240539Z 2406/2506 23012G20KT P6SM FEW050 BKN070 
     FM241000 26008KT P6SM VCSH SCT025 BKN100 
     FM241900 25009KT 6SM -SHRA SCT050 BKN100 
     FM242200 06007KT 5SM -RA SCT020 BKN050
       
KLVS 240530Z 2406/2506 18016KT P6SM SCT250 
     FM241500 24025G35KT P6SM FEW250 
     FM241800 25030G43KT P6SM SCT250
       
KLWB 240600Z 2406/2506 06008KT 6SM -RA SCT007 OVC015 
     FM241700 08009KT 5SM -RA BR OVC008 
     FM250000 06008KT P6SM OVC008
       
KLWS 240524Z 2406/2506 19007KT P6SM -SHRA BKN060 OVC100 
     FM240800 16006KT P6SM FEW020 BKN070 OVC100 
     FM241500 VRB04KT P6SM -SHRA BKN035 OVC060
       
KLWT 240520Z 2406/2506 VRB05KT P6SM VCSH SCT035 BKN070 
     TEMPO 2406/2408 -SHRA BKN035 
     FM240900 24006KT 6SM BR SCT020 SCT050 BKN090 
     FM241800 32008KT P6SM VCSH SCT035 BKN060 
     PROB30 2420/2424 -SHRA BKN035 
     FM250000 07010KT P6SM -SHRA SCT015 OVC025
       
KLYH 240600Z 2406/2506 05010KT 6SM -RA BKN007 OVC010 
     TEMPO 2406/2409 5SM RA SCT007 OVC012 
     FM240900 05012KT 5SM RA OVC010 
     FM241600 04012KT 3SM +RA SCT008 OVC015 
     FM250000 04013KT 3SM RA BR OVC008